createdAt,value
2019-03-30T00:00:44.832Z,7.43
2019-03-30T00:01:44.802Z,7.45
2019-03-30T00:02:44.787Z,7.45
2019-03-30T00:03:44.781Z,7.49
2019-03-30T00:04:44.762Z,7.46
2019-03-30T00:05:44.770Z,7.45
2019-03-30T00:06:44.742Z,7.42
2019-03-30T00:07:44.731Z,7.39
2019-03-30T00:08:44.725Z,7.37
2019-03-30T00:09:44.716Z,7.37
2019-03-30T00:10:44.720Z,7.30
2019-03-30T00:11:44.689Z,7.28
2019-03-30T00:12:44.684Z,7.30
2019-03-30T00:13:44.665Z,7.32
2019-03-30T00:14:44.654Z,7.27
2019-03-30T00:15:44.656Z,7.30
2019-03-30T00:16:44.636Z,7.24
2019-03-30T00:17:44.620Z,7.21
2019-03-30T00:18:44.607Z,7.31
2019-03-30T00:19:44.603Z,7.28
2019-03-30T00:20:44.606Z,7.27
2019-03-30T00:21:44.576Z,7.17
2019-03-30T00:22:44.566Z,7.25
2019-03-30T00:23:44.554Z,7.24
2019-03-30T00:24:44.548Z,7.23
2019-03-30T00:25:44.554Z,7.25
2019-03-30T00:26:44.527Z,7.23
2019-03-30T00:27:44.514Z,7.23
2019-03-30T00:28:44.513Z,7.17
2019-03-30T00:29:44.498Z,7.17
2019-03-30T00:30:44.493Z,7.27
2019-03-30T00:31:44.466Z,7.21
2019-03-30T00:32:44.456Z,7.24
2019-03-30T00:33:44.442Z,7.12
2019-03-30T00:34:44.431Z,7.07
2019-03-30T00:35:44.447Z,7.12
2019-03-30T00:36:44.409Z,7.15
2019-03-30T00:37:44.401Z,7.13
2019-03-30T00:38:44.389Z,7.13
2019-03-30T00:39:44.388Z,7.02
2019-03-30T00:40:44.358Z,7.12
2019-03-30T00:41:44.373Z,7.03
2019-03-30T00:42:44.353Z,7.05
2019-03-30T00:43:44.335Z,7.05
2019-03-30T00:44:44.317Z,7.03
2019-03-30T00:45:44.376Z,7.03
2019-03-30T00:46:44.313Z,7.12
2019-03-30T00:47:44.283Z,7.05
2019-03-30T00:48:44.272Z,7.13
2019-03-30T00:49:49.708Z,7.06
2019-03-30T00:50:45.251Z,7.13
2019-03-30T00:51:44.262Z,7.16
2019-03-30T00:52:44.225Z,6.98
2019-03-30T00:53:44.226Z,7.05
2019-03-30T00:54:44.211Z,7.06
2019-03-30T00:55:44.192Z,6.99
2019-03-30T00:56:44.202Z,7.06
2019-03-30T00:57:44.199Z,7.07
2019-03-30T00:58:44.161Z,6.95
2019-03-30T00:59:44.163Z,7.03
2019-03-30T01:00:44.140Z,7.06
2019-03-30T01:01:44.142Z,7.09
2019-03-30T01:02:44.118Z,7.03
2019-03-30T01:03:44.105Z,7.05
2019-03-30T01:04:44.094Z,7.03
2019-03-30T01:05:44.084Z,6.98
2019-03-30T01:06:44.094Z,7.02
2019-03-30T01:07:44.057Z,7.05
2019-03-30T01:08:44.053Z,7.05
2019-03-30T01:09:44.035Z,7.05
2019-03-30T01:10:44.024Z,6.99
2019-03-30T01:11:44.043Z,7.07
2019-03-30T01:12:44.003Z,7.05
2019-03-30T01:13:43.992Z,6.97
2019-03-30T01:14:43.981Z,6.91
2019-03-30T01:15:43.968Z,7.02
2019-03-30T01:16:43.961Z,6.94
2019-03-30T01:17:44.039Z,6.94
2019-03-30T01:18:43.932Z,6.84
2019-03-30T01:19:43.924Z,6.88
2019-03-30T01:20:43.914Z,6.88
2019-03-30T01:21:43.899Z,6.84
2019-03-30T01:22:43.914Z,6.84
2019-03-30T01:23:43.877Z,6.88
2019-03-30T01:24:43.867Z,6.84
2019-03-30T01:25:43.857Z,6.85
2019-03-30T01:26:43.850Z,6.81
2019-03-30T01:27:43.876Z,6.87
2019-03-30T01:28:43.823Z,6.85
2019-03-30T01:29:43.820Z,6.73
2019-03-30T01:30:43.796Z,6.74
2019-03-30T01:31:43.788Z,6.81
2019-03-30T01:32:43.797Z,6.73
2019-03-30T01:33:43.766Z,6.71
2019-03-30T01:34:43.759Z,6.77
2019-03-30T01:35:43.744Z,6.70
2019-03-30T01:36:43.735Z,6.73
2019-03-30T01:37:43.744Z,6.76
2019-03-30T01:38:43.710Z,6.77
2019-03-30T01:39:43.696Z,6.62
2019-03-30T01:40:43.692Z,6.79
2019-03-30T01:41:43.674Z,6.66
2019-03-30T01:42:43.679Z,6.66
2019-03-30T01:43:43.654Z,6.61
2019-03-30T01:44:43.645Z,6.67
2019-03-30T01:45:43.634Z,6.64
2019-03-30T01:46:43.617Z,6.54
2019-03-30T01:47:43.627Z,6.62
2019-03-30T01:48:43.592Z,6.61
2019-03-30T01:49:43.584Z,6.55
2019-03-30T01:50:43.580Z,6.48
2019-03-30T01:51:43.564Z,6.48
2019-03-30T01:52:43.567Z,6.38
2019-03-30T01:53:43.539Z,6.43
2019-03-30T01:54:43.533Z,6.38
2019-03-30T01:55:43.517Z,6.37
2019-03-30T01:56:43.506Z,6.31
2019-03-30T01:57:43.514Z,6.36
2019-03-30T01:58:43.484Z,6.22
2019-03-30T01:59:43.475Z,6.15
2019-03-30T02:00:43.470Z,6.19
2019-03-30T02:01:43.452Z,6.22
2019-03-30T02:02:43.455Z,6.15
2019-03-30T02:03:43.427Z,6.12
2019-03-30T02:04:43.432Z,6.11
2019-03-30T02:05:43.402Z,6.06
2019-03-30T02:06:43.394Z,6.04
2019-03-30T02:07:43.410Z,6.08
2019-03-30T02:08:43.369Z,6.06
2019-03-30T02:09:43.362Z,6.04
2019-03-30T02:10:43.348Z,6.06
2019-03-30T02:11:43.343Z,6.09
2019-03-30T02:12:43.342Z,6.09
2019-03-30T02:13:43.333Z,6.04
2019-03-30T02:14:43.305Z,6.03
2019-03-30T02:15:43.330Z,6.00
2019-03-30T02:16:43.279Z,5.93
2019-03-30T02:17:43.298Z,5.94
2019-03-30T02:18:43.296Z,5.94
2019-03-30T02:19:43.255Z,6.00
2019-03-30T02:20:43.238Z,6.00
2019-03-30T02:21:43.223Z,5.96
2019-03-30T02:22:43.214Z,5.86
2019-03-30T02:23:43.228Z,5.86
2019-03-30T02:24:43.200Z,5.81
2019-03-30T02:25:43.186Z,5.83
2019-03-30T02:26:43.178Z,5.76
2019-03-30T02:27:43.159Z,5.76
2019-03-30T02:28:43.176Z,5.79
2019-03-30T02:29:43.132Z,5.74
2019-03-30T02:30:43.126Z,5.76
2019-03-30T02:31:43.129Z,5.67
2019-03-30T02:32:43.102Z,5.72
2019-03-30T02:33:43.109Z,5.71
2019-03-30T02:34:43.089Z,5.71
2019-03-30T02:35:43.068Z,5.71
2019-03-30T02:36:43.075Z,5.67
2019-03-30T02:37:43.048Z,5.68
2019-03-30T02:38:43.051Z,5.65
2019-03-30T02:39:43.044Z,5.74
2019-03-30T02:40:43.021Z,5.68
2019-03-30T02:41:43.009Z,5.72
2019-03-30T02:42:43.003Z,5.67
2019-03-30T02:43:43.007Z,5.65
2019-03-30T02:44:42.984Z,5.68
2019-03-30T02:45:42.961Z,5.57
2019-03-30T02:46:42.952Z,5.72
2019-03-30T02:47:42.950Z,5.58
2019-03-30T02:48:42.942Z,5.63
2019-03-30T02:49:42.910Z,5.64
2019-03-30T02:50:49.975Z,5.58
2019-03-30T02:51:43.891Z,5.63
2019-03-30T02:52:42.883Z,5.67
2019-03-30T02:53:42.884Z,5.68
2019-03-30T02:54:42.861Z,5.60
2019-03-30T02:55:42.843Z,5.58
2019-03-30T02:56:42.833Z,5.60
2019-03-30T02:57:42.829Z,5.63
2019-03-30T02:58:42.825Z,5.63
2019-03-30T02:59:42.803Z,5.60
2019-03-30T03:00:42.786Z,5.63
2019-03-30T03:01:42.783Z,5.57
2019-03-30T03:02:42.762Z,5.63
2019-03-30T03:03:42.779Z,5.57
2019-03-30T03:04:42.763Z,5.65
2019-03-30T03:05:42.785Z,5.56
2019-03-30T03:06:42.725Z,5.54
2019-03-30T03:07:42.714Z,5.58
2019-03-30T03:08:42.717Z,5.58
2019-03-30T03:09:42.685Z,5.56
2019-03-30T03:10:42.736Z,5.58
2019-03-30T03:11:42.662Z,5.58
2019-03-30T03:12:42.651Z,5.56
2019-03-30T03:13:42.661Z,5.53
2019-03-30T03:14:42.630Z,5.57
2019-03-30T03:15:42.622Z,5.53
2019-03-30T03:16:42.685Z,5.49
2019-03-30T03:17:42.597Z,5.48
2019-03-30T03:18:42.620Z,5.51
2019-03-30T03:19:42.577Z,5.42
2019-03-30T03:20:42.569Z,5.51
2019-03-30T03:21:42.554Z,5.51
2019-03-30T03:22:42.549Z,5.45
2019-03-30T03:23:42.563Z,5.48
2019-03-30T03:24:42.518Z,5.49
2019-03-30T03:25:42.514Z,5.40
2019-03-30T03:26:42.497Z,5.39
2019-03-30T03:27:42.487Z,5.36
2019-03-30T03:28:42.507Z,5.36
2019-03-30T03:29:43.962Z,5.33
2019-03-30T03:30:42.451Z,5.28
2019-03-30T03:31:42.446Z,5.28
2019-03-30T03:32:42.442Z,5.30
2019-03-30T03:33:42.437Z,5.30
2019-03-30T03:34:42.412Z,5.28
2019-03-30T03:35:42.402Z,5.27
2019-03-30T03:36:42.386Z,5.28
2019-03-30T03:37:46.060Z,5.25
2019-03-30T03:38:42.382Z,5.35
2019-03-30T03:39:42.360Z,5.36
2019-03-30T03:40:42.347Z,5.27
2019-03-30T03:41:42.330Z,5.33
2019-03-30T03:42:42.320Z,5.27
2019-03-30T03:43:42.338Z,5.28
2019-03-30T03:44:42.295Z,5.31
2019-03-30T03:45:42.289Z,5.27
2019-03-30T03:46:42.279Z,5.22
2019-03-30T03:47:42.267Z,5.30
2019-03-30T03:48:42.278Z,5.28
2019-03-30T03:49:42.245Z,5.25
2019-03-30T03:50:42.406Z,5.31
2019-03-30T03:51:42.229Z,5.25
2019-03-30T03:52:42.238Z,5.33
2019-03-30T03:53:42.210Z,5.30
2019-03-30T03:54:42.188Z,5.33
2019-03-30T03:55:42.212Z,5.28
2019-03-30T03:56:42.172Z,5.28
2019-03-30T03:57:42.153Z,5.46
2019-03-30T03:58:42.152Z,5.48
2019-03-30T03:59:42.146Z,5.51
2019-03-30T04:00:42.119Z,5.48
2019-03-30T04:01:42.115Z,5.45
2019-03-30T04:02:42.092Z,5.51
2019-03-30T04:03:42.094Z,5.48
2019-03-30T04:04:42.105Z,5.53
2019-03-30T04:05:42.071Z,5.61
2019-03-30T04:06:42.046Z,5.60
2019-03-30T04:07:42.055Z,5.71
2019-03-30T04:08:42.035Z,5.61
2019-03-30T04:09:42.033Z,5.53
2019-03-30T04:10:42.004Z,5.67
2019-03-30T04:11:42.005Z,5.67
2019-03-30T04:12:41.984Z,5.68
2019-03-30T04:13:41.983Z,5.63
2019-03-30T04:14:41.986Z,5.63
2019-03-30T04:15:41.951Z,5.57
2019-03-30T04:16:41.944Z,5.61
2019-03-30T04:17:41.929Z,5.48
2019-03-30T04:18:41.915Z,5.54
2019-03-30T04:19:41.923Z,5.45
2019-03-30T04:20:41.925Z,5.38
2019-03-30T04:21:44.149Z,5.38
2019-03-30T04:22:41.873Z,5.38
2019-03-30T04:23:41.858Z,5.28
2019-03-30T04:24:41.898Z,5.25
2019-03-30T04:25:41.846Z,5.33
2019-03-30T04:26:41.834Z,5.27
2019-03-30T04:27:41.815Z,5.30
2019-03-30T04:28:41.803Z,5.27
2019-03-30T04:29:41.816Z,5.24
2019-03-30T04:30:41.793Z,5.36
2019-03-30T04:31:41.772Z,5.38
2019-03-30T04:32:41.757Z,5.35
2019-03-30T04:33:41.750Z,5.27
2019-03-30T04:34:41.759Z,5.27
2019-03-30T04:35:41.732Z,5.30
2019-03-30T04:36:41.721Z,5.21
2019-03-30T04:37:41.706Z,5.17
2019-03-30T04:38:41.690Z,5.09
2019-03-30T04:39:41.704Z,5.20
2019-03-30T04:40:41.669Z,5.12
2019-03-30T04:41:41.663Z,5.13
2019-03-30T04:42:41.651Z,5.13
2019-03-30T04:43:41.635Z,5.09
2019-03-30T04:44:41.640Z,5.06
2019-03-30T04:45:41.621Z,5.10
2019-03-30T04:46:41.609Z,5.12
2019-03-30T04:47:41.592Z,5.04
2019-03-30T04:48:41.581Z,5.09
2019-03-30T04:49:41.586Z,5.07
2019-03-30T04:50:41.554Z,5.03
2019-03-30T04:51:41.550Z,5.06
2019-03-30T04:52:41.532Z,5.09
2019-03-30T04:53:41.524Z,5.06
2019-03-30T04:54:41.532Z,5.07
2019-03-30T04:55:41.506Z,5.09
2019-03-30T04:56:41.493Z,5.09
2019-03-30T04:57:41.502Z,5.06
2019-03-30T04:58:41.473Z,5.06
2019-03-30T04:59:41.457Z,5.04
2019-03-30T05:00:41.499Z,5.07
2019-03-30T05:01:41.438Z,5.07
2019-03-30T05:02:41.443Z,5.12
2019-03-30T05:03:41.416Z,5.07
2019-03-30T05:04:41.407Z,5.04
2019-03-30T05:05:43.031Z,5.06
2019-03-30T05:06:41.388Z,5.06
2019-03-30T05:07:41.380Z,5.04
2019-03-30T05:08:41.359Z,5.10
2019-03-30T05:09:41.343Z,5.00
2019-03-30T05:10:41.349Z,5.03
2019-03-30T05:11:41.320Z,4.94
2019-03-30T05:12:41.312Z,4.96
2019-03-30T05:13:41.306Z,4.91
2019-03-30T05:14:41.298Z,4.84
2019-03-30T05:15:41.299Z,4.77
2019-03-30T05:16:41.265Z,4.84
2019-03-30T05:17:47.517Z,4.80
2019-03-30T05:18:42.245Z,4.84
2019-03-30T05:19:41.244Z,4.78
2019-03-30T05:20:41.253Z,4.91
2019-03-30T05:21:41.210Z,4.88
2019-03-30T05:22:41.198Z,4.94
2019-03-30T05:23:41.297Z,4.88
2019-03-30T05:24:41.178Z,4.88
2019-03-30T05:25:41.292Z,4.88
2019-03-30T05:26:41.156Z,4.88
2019-03-30T05:27:41.144Z,4.94
2019-03-30T05:28:41.130Z,4.96
2019-03-30T05:29:41.123Z,5.00
2019-03-30T05:30:41.124Z,4.94
2019-03-30T05:31:41.097Z,4.97
2019-03-30T05:32:41.895Z,4.96
2019-03-30T05:33:41.075Z,4.99
2019-03-30T05:34:41.062Z,4.97
2019-03-30T05:35:41.070Z,4.96
2019-03-30T05:36:41.046Z,5.02
2019-03-30T05:37:41.031Z,5.06
2019-03-30T05:38:41.029Z,5.06
2019-03-30T05:39:41.009Z,5.07
2019-03-30T05:40:41.011Z,5.07
2019-03-30T05:41:40.985Z,5.04
2019-03-30T05:42:40.974Z,5.10
2019-03-30T05:43:40.974Z,5.07
2019-03-30T05:44:40.952Z,5.10
2019-03-30T05:45:40.972Z,5.02
2019-03-30T05:46:40.932Z,5.03
2019-03-30T05:47:41.011Z,5.02
2019-03-30T05:48:40.906Z,5.10
2019-03-30T05:49:40.896Z,5.15
2019-03-30T05:50:40.890Z,5.06
2019-03-30T05:51:40.894Z,5.18
2019-03-30T05:52:40.870Z,5.24
2019-03-30T05:53:40.867Z,5.20
2019-03-30T05:54:40.838Z,5.24
2019-03-30T05:55:40.833Z,5.25
2019-03-30T05:56:40.867Z,5.24
2019-03-30T05:57:40.818Z,5.24
2019-03-30T05:58:40.798Z,5.24
2019-03-30T05:59:40.782Z,5.28
2019-03-30T06:00:40.900Z,5.30
2019-03-30T06:01:40.762Z,5.27
2019-03-30T06:02:40.754Z,5.31
2019-03-30T06:03:40.748Z,5.31
2019-03-30T06:04:40.732Z,5.40
2019-03-30T06:05:40.757Z,5.38
2019-03-30T06:06:40.712Z,5.40
2019-03-30T06:07:40.692Z,5.39
2019-03-30T06:08:40.686Z,5.43
2019-03-30T06:09:40.671Z,5.42
2019-03-30T06:10:40.664Z,5.58
2019-03-30T06:11:40.673Z,5.57
2019-03-30T06:12:40.658Z,5.60
2019-03-30T06:13:40.624Z,5.61
2019-03-30T06:14:40.615Z,5.67
2019-03-30T06:15:40.610Z,5.71
2019-03-30T06:16:40.609Z,5.78
2019-03-30T06:17:40.578Z,5.72
2019-03-30T06:18:40.570Z,5.89
2019-03-30T06:19:40.562Z,5.91
2019-03-30T06:20:40.555Z,5.97
2019-03-30T06:21:40.558Z,6.00
2019-03-30T06:22:40.970Z,6.04
2019-03-30T06:23:40.514Z,6.17
2019-03-30T06:24:40.508Z,6.18
2019-03-30T06:25:40.489Z,6.15
2019-03-30T06:26:40.514Z,6.22
2019-03-30T06:27:40.474Z,6.34
2019-03-30T06:28:40.459Z,6.44
2019-03-30T06:29:40.447Z,6.55
2019-03-30T06:30:40.440Z,6.48
2019-03-30T06:31:40.451Z,6.54
2019-03-30T06:32:40.422Z,6.58
2019-03-30T06:33:40.415Z,6.54
2019-03-30T06:34:40.393Z,6.70
2019-03-30T06:35:40.394Z,6.69
2019-03-30T06:36:40.399Z,6.66
2019-03-30T06:37:40.356Z,6.76
2019-03-30T06:38:40.356Z,6.71
2019-03-30T06:39:40.343Z,6.71
2019-03-30T06:40:40.335Z,6.74
2019-03-30T06:41:40.348Z,6.73
2019-03-30T06:42:40.303Z,6.64
2019-03-30T06:43:40.292Z,6.66
2019-03-30T06:44:40.278Z,6.71
2019-03-30T06:45:40.268Z,6.74
2019-03-30T06:46:40.281Z,6.81
2019-03-30T06:47:40.246Z,6.81
2019-03-30T06:48:40.233Z,6.87
2019-03-30T06:49:40.225Z,7.05
2019-03-30T06:50:40.214Z,7.17
2019-03-30T06:51:40.223Z,7.13
2019-03-30T06:52:42.798Z,7.17
2019-03-30T06:53:41.184Z,7.28
2019-03-30T06:54:40.172Z,7.30
2019-03-30T06:55:40.166Z,7.39
2019-03-30T06:56:40.164Z,7.37
2019-03-30T06:57:40.233Z,7.46
2019-03-30T06:58:40.123Z,7.49
2019-03-30T06:59:40.112Z,7.60
2019-03-30T07:00:40.112Z,7.68
2019-03-30T07:01:40.112Z,7.79
2019-03-30T07:02:40.074Z,7.82
2019-03-30T07:03:40.068Z,7.87
2019-03-30T07:04:40.065Z,7.89
2019-03-30T07:05:40.043Z,7.85
2019-03-30T07:06:40.056Z,7.98
2019-03-30T07:07:40.032Z,8.12
2019-03-30T07:08:40.026Z,8.08
2019-03-30T07:09:39.996Z,8.11
2019-03-30T07:10:39.994Z,8.10
2019-03-30T07:11:39.996Z,8.15
2019-03-30T07:12:39.974Z,8.19
2019-03-30T07:13:39.955Z,8.25
2019-03-30T07:14:39.947Z,8.37
2019-03-30T07:15:39.932Z,8.40
2019-03-30T07:16:39.936Z,8.44
2019-03-30T07:17:39.921Z,8.50
2019-03-30T07:18:39.897Z,8.56
2019-03-30T07:19:39.890Z,8.70
2019-03-30T07:20:39.881Z,8.73
2019-03-30T07:21:39.934Z,8.86
2019-03-30T07:22:39.870Z,8.92
2019-03-30T07:23:39.839Z,8.94
2019-03-30T07:24:39.835Z,8.95
2019-03-30T07:25:39.823Z,9.11
2019-03-30T07:26:39.814Z,9.14
2019-03-30T07:27:39.829Z,9.26
2019-03-30T07:28:39.790Z,9.36
2019-03-30T07:29:39.779Z,9.26
2019-03-30T07:30:39.776Z,9.31
2019-03-30T07:31:39.769Z,9.31
2019-03-30T07:32:39.761Z,9.32
2019-03-30T07:33:39.730Z,9.43
2019-03-30T07:34:41.710Z,9.47
2019-03-30T07:35:39.714Z,9.57
2019-03-30T07:36:39.692Z,9.53
2019-03-30T07:37:39.774Z,9.60
2019-03-30T07:38:39.672Z,9.54
2019-03-30T07:39:39.668Z,9.75
2019-03-30T07:40:39.658Z,9.76
2019-03-30T07:41:39.648Z,9.71
2019-03-30T07:42:39.643Z,9.97
2019-03-30T07:43:39.620Z,9.94
2019-03-30T07:44:39.639Z,10.02
2019-03-30T07:45:39.599Z,10.11
2019-03-30T07:46:39.583Z,10.14
2019-03-30T07:47:39.594Z,10.25
2019-03-30T07:48:39.567Z,10.29
2019-03-30T07:49:39.555Z,10.29
2019-03-30T07:50:39.577Z,10.41
2019-03-30T07:51:39.538Z,10.41
2019-03-30T07:52:39.534Z,10.41
2019-03-30T07:53:44.816Z,10.48
2019-03-30T07:54:40.498Z,10.51
2019-03-30T07:55:39.479Z,10.59
2019-03-30T07:56:39.475Z,10.63
2019-03-30T07:57:39.477Z,10.61
2019-03-30T07:58:39.448Z,10.73
2019-03-30T07:59:39.437Z,10.78
2019-03-30T08:00:39.432Z,10.73
2019-03-30T08:01:39.418Z,10.76
2019-03-30T08:02:39.423Z,10.76
2019-03-30T08:03:39.391Z,10.92
2019-03-30T08:04:39.386Z,10.97
2019-03-30T08:05:39.372Z,11.07
2019-03-30T08:06:39.363Z,11.03
2019-03-30T08:07:39.382Z,11.10
2019-03-30T08:08:39.352Z,11.04
2019-03-30T08:09:39.327Z,11.19
2019-03-30T08:10:39.316Z,11.18
2019-03-30T08:11:39.297Z,11.25
2019-03-30T08:12:39.309Z,11.32
2019-03-30T08:13:39.280Z,11.28
2019-03-30T08:14:39.287Z,11.40
2019-03-30T08:15:39.266Z,11.47
2019-03-30T08:16:39.250Z,11.52
2019-03-30T08:17:39.242Z,11.54
2019-03-30T08:18:39.250Z,11.60
2019-03-30T08:19:39.225Z,11.64
2019-03-30T08:20:39.206Z,11.72
2019-03-30T08:21:39.189Z,11.73
2019-03-30T08:22:39.177Z,11.76
2019-03-30T08:23:40.471Z,11.85
2019-03-30T08:24:39.198Z,11.94
2019-03-30T08:25:39.142Z,11.98
2019-03-30T08:26:39.130Z,11.99
2019-03-30T08:27:39.118Z,12.05
2019-03-30T08:28:39.143Z,12.12
2019-03-30T08:29:39.663Z,12.20
2019-03-30T08:30:39.091Z,12.10
2019-03-30T08:31:39.081Z,12.14
2019-03-30T08:32:39.067Z,12.13
2019-03-30T08:33:39.052Z,12.23
2019-03-30T08:34:39.063Z,12.24
2019-03-30T08:35:39.031Z,12.39
2019-03-30T08:36:39.016Z,12.49
2019-03-30T08:37:39.010Z,12.46
2019-03-30T08:38:39.072Z,12.47
2019-03-30T08:39:38.999Z,12.49
2019-03-30T08:40:38.978Z,12.56
2019-03-30T08:41:38.967Z,12.50
2019-03-30T08:42:38.953Z,12.46
2019-03-30T08:43:38.944Z,12.49
2019-03-30T08:44:38.984Z,12.64
2019-03-30T08:45:38.918Z,12.65
2019-03-30T08:46:38.905Z,12.60
2019-03-30T08:47:38.979Z,12.68
2019-03-30T08:48:38.889Z,12.72
2019-03-30T08:49:38.892Z,12.67
2019-03-30T08:50:38.857Z,12.75
2019-03-30T08:51:38.847Z,12.74
2019-03-30T08:52:38.860Z,12.82
2019-03-30T08:53:38.828Z,12.95
2019-03-30T08:54:38.832Z,12.92
2019-03-30T08:55:38.810Z,12.90
2019-03-30T08:56:38.793Z,13.05
2019-03-30T08:57:38.789Z,13.07
2019-03-30T08:58:38.767Z,13.07
2019-03-30T08:59:38.774Z,13.04
2019-03-30T09:00:38.746Z,13.05
2019-03-30T09:01:38.740Z,13.12
2019-03-30T09:02:38.727Z,13.12
2019-03-30T09:03:38.716Z,13.23
2019-03-30T09:04:38.723Z,13.28
2019-03-30T09:05:38.699Z,13.22
2019-03-30T09:06:38.698Z,13.25
2019-03-30T09:07:38.664Z,13.20
2019-03-30T09:08:38.658Z,13.36
2019-03-30T09:09:38.676Z,13.36
2019-03-30T09:10:38.630Z,13.54
2019-03-30T09:11:38.621Z,13.55
2019-03-30T09:12:38.615Z,13.54
2019-03-30T09:13:38.603Z,13.60
2019-03-30T09:14:38.588Z,13.57
2019-03-30T09:15:38.608Z,13.55
2019-03-30T09:16:38.564Z,13.55
2019-03-30T09:17:38.556Z,13.73
2019-03-30T09:18:38.551Z,13.79
2019-03-30T09:19:38.531Z,13.69
2019-03-30T09:20:38.542Z,13.62
2019-03-30T09:21:38.514Z,13.63
2019-03-30T09:22:38.503Z,13.70
2019-03-30T09:23:38.491Z,13.77
2019-03-30T09:24:38.483Z,13.82
2019-03-30T09:25:38.479Z,13.82
2019-03-30T09:26:38.449Z,13.77
2019-03-30T09:27:38.443Z,13.81
2019-03-30T09:28:38.422Z,13.78
2019-03-30T09:29:38.423Z,13.84
2019-03-30T09:30:38.423Z,13.87
2019-03-30T09:31:38.401Z,13.99
2019-03-30T09:32:38.387Z,14.06
2019-03-30T09:33:38.376Z,14.03
2019-03-30T09:34:38.360Z,14.07
2019-03-30T09:35:38.370Z,14.14
2019-03-30T09:36:38.410Z,14.07
2019-03-30T09:37:38.329Z,14.20
2019-03-30T09:38:38.318Z,14.32
2019-03-30T09:39:38.311Z,14.32
2019-03-30T09:40:38.295Z,14.42
2019-03-30T09:41:38.387Z,14.57
2019-03-30T09:42:38.266Z,14.58
2019-03-30T09:43:38.267Z,14.55
2019-03-30T09:44:38.247Z,14.51
2019-03-30T09:45:38.236Z,14.54
2019-03-30T09:46:38.249Z,14.60
2019-03-30T09:47:38.212Z,14.61
2019-03-30T09:48:38.272Z,14.69
2019-03-30T09:49:38.194Z,14.57
2019-03-30T09:50:38.181Z,14.61
2019-03-30T09:51:38.190Z,14.65
2019-03-30T09:52:38.160Z,14.69
2019-03-30T09:53:38.144Z,14.80
2019-03-30T09:54:38.143Z,14.88
2019-03-30T09:55:38.640Z,14.91
2019-03-30T09:56:38.133Z,14.92
2019-03-30T09:57:38.103Z,14.92
2019-03-30T09:58:38.092Z,15.03
2019-03-30T09:59:38.084Z,15.16
2019-03-30T10:00:38.071Z,15.39
2019-03-30T10:01:38.085Z,15.72
2019-03-30T10:02:38.044Z,15.75
2019-03-30T10:03:38.031Z,15.68
2019-03-30T10:04:38.020Z,15.76
2019-03-30T10:05:38.008Z,15.82
2019-03-30T10:06:38.017Z,16.02
2019-03-30T10:07:37.989Z,16.34
2019-03-30T10:08:38.001Z,16.38
2019-03-30T10:09:37.962Z,16.20
2019-03-30T10:10:38.040Z,16.15
2019-03-30T10:11:37.960Z,16.46
2019-03-30T10:12:37.929Z,16.88
2019-03-30T10:13:37.919Z,16.98
2019-03-30T10:14:37.908Z,17.26
2019-03-30T10:15:37.920Z,17.46
2019-03-30T10:16:37.911Z,17.87
2019-03-30T10:17:37.876Z,18.08
2019-03-30T10:18:37.939Z,18.27
2019-03-30T10:19:37.858Z,18.72
2019-03-30T10:20:37.840Z,19.22
2019-03-30T10:21:37.867Z,19.54
2019-03-30T10:22:37.813Z,19.51
2019-03-30T10:23:37.809Z,19.55
2019-03-30T10:24:38.694Z,20.01
2019-03-30T10:25:37.788Z,20.35
2019-03-30T10:26:38.648Z,20.48
2019-03-30T10:27:37.758Z,20.67
2019-03-30T10:28:37.753Z,21.21
2019-03-30T10:29:37.774Z,21.52
2019-03-30T10:30:37.735Z,21.68
2019-03-30T10:31:37.732Z,21.79
2019-03-30T10:32:37.710Z,21.82
2019-03-30T10:33:37.688Z,21.84
2019-03-30T10:34:39.614Z,21.71
2019-03-30T10:35:37.708Z,22.05
2019-03-30T10:36:37.692Z,21.44
2019-03-30T10:37:37.656Z,20.98
2019-03-30T10:38:37.646Z,20.64
2019-03-30T10:39:37.646Z,20.55
2019-03-30T10:40:37.635Z,20.50
2019-03-30T10:41:37.624Z,20.41
2019-03-30T10:42:37.596Z,20.62
2019-03-30T10:43:37.584Z,20.77
2019-03-30T10:44:37.582Z,21.25
2019-03-30T10:45:37.558Z,21.75
2019-03-30T10:46:37.575Z,22.20
2019-03-30T10:47:37.542Z,22.07
2019-03-30T10:48:37.533Z,22.10
2019-03-30T10:49:37.548Z,22.30
2019-03-30T10:51:38.662Z,22.67
2019-03-30T10:52:37.488Z,22.67
2019-03-30T10:53:37.507Z,22.61
2019-03-30T10:54:51.671Z,23.01
2019-03-30T10:55:38.449Z,23.10
2019-03-30T10:56:37.541Z,23.54
2019-03-30T10:57:38.259Z,23.73
2019-03-30T10:58:37.420Z,23.53
2019-03-30T10:59:37.408Z,24.03
2019-03-30T11:00:37.403Z,24.69
2019-03-30T11:01:37.413Z,24.34
2019-03-30T11:02:38.172Z,24.12
2019-03-30T11:03:37.365Z,23.63
2019-03-30T11:04:38.245Z,23.22
2019-03-30T11:05:37.348Z,22.20
2019-03-30T11:06:37.358Z,21.88
2019-03-30T11:07:38.281Z,21.74
2019-03-30T11:09:38.472Z,22.76
2019-03-30T11:10:37.291Z,23.31
2019-03-30T11:11:37.301Z,23.79
2019-03-30T11:12:37.282Z,23.88
2019-03-30T11:13:37.269Z,24.60
2019-03-30T11:14:37.252Z,25.18
2019-03-30T11:15:37.240Z,24.50
2019-03-30T11:16:37.326Z,24.47
2019-03-30T11:17:37.222Z,25.13
2019-03-30T11:18:37.213Z,25.28
2019-03-30T11:19:37.228Z,25.02
2019-03-30T11:20:37.189Z,24.35
2019-03-30T11:21:37.197Z,23.80
2019-03-30T11:22:37.170Z,23.83
2019-03-30T11:23:37.162Z,24.15
2019-03-30T11:24:37.176Z,24.84
2019-03-30T11:25:37.137Z,25.82
2019-03-30T11:26:37.212Z,26.57
2019-03-30T11:27:37.111Z,26.13
2019-03-30T11:28:37.133Z,26.12
2019-03-30T11:29:37.098Z,26.45
2019-03-30T11:30:37.085Z,26.18
2019-03-30T11:31:37.116Z,25.76
2019-03-30T11:32:37.073Z,25.76
2019-03-30T11:33:37.049Z,26.23
2019-03-30T11:34:37.039Z,26.15
2019-03-30T11:35:37.033Z,25.69
2019-03-30T11:36:37.036Z,26.26
2019-03-30T11:37:37.013Z,26.91
2019-03-30T11:38:37.017Z,26.81
2019-03-30T11:39:36.992Z,26.45
2019-03-30T11:40:36.983Z,26.18
2019-03-30T11:41:37.006Z,26.66
2019-03-30T11:42:36.963Z,26.87
2019-03-30T11:43:36.958Z,27.31
2019-03-30T11:44:36.940Z,27.93
2019-03-30T11:45:36.934Z,27.14
2019-03-30T11:46:36.952Z,27.31
2019-03-30T11:47:36.934Z,27.60
2019-03-30T11:48:37.656Z,28.25
2019-03-30T11:49:36.894Z,29.04
2019-03-30T11:50:36.888Z,29.60
2019-03-30T11:51:36.881Z,29.09
2019-03-30T11:52:36.886Z,28.56
2019-03-30T11:53:36.853Z,28.41
2019-03-30T11:54:36.839Z,28.81
2019-03-30T11:55:36.834Z,29.31
2019-03-30T11:56:36.849Z,28.62
2019-03-30T11:57:36.848Z,27.18
2019-03-30T11:58:36.803Z,27.09
2019-03-30T11:59:36.793Z,27.40
2019-03-30T12:00:36.783Z,27.93
2019-03-30T12:01:36.778Z,27.92
2019-03-30T12:02:36.760Z,27.40
2019-03-30T12:03:36.777Z,27.14
2019-03-30T12:04:36.751Z,26.97
2019-03-30T12:05:36.743Z,27.55
2019-03-30T12:06:36.728Z,28.29
2019-03-30T12:07:36.759Z,28.18
2019-03-30T12:08:36.735Z,27.92
2019-03-30T12:09:36.704Z,27.31
2019-03-30T12:10:36.784Z,26.94
2019-03-30T12:11:36.705Z,26.47
2019-03-30T12:12:37.548Z,25.65
2019-03-30T12:13:36.675Z,25.76
2019-03-30T12:14:36.715Z,25.42
2019-03-30T12:15:36.637Z,25.98
2019-03-30T12:16:36.626Z,26.91
2019-03-30T12:17:36.655Z,27.24
2019-03-30T12:18:37.285Z,27.62
2019-03-30T12:19:36.633Z,27.39
2019-03-30T12:20:36.679Z,27.84
2019-03-30T12:21:36.602Z,28.46
2019-03-30T12:22:36.567Z,29.39
2019-03-30T12:23:36.564Z,29.78
2019-03-30T12:24:37.671Z,28.92
2019-03-30T12:25:36.542Z,28.40
2019-03-30T12:26:36.523Z,28.88
2019-03-30T12:27:36.517Z,28.40
2019-03-30T12:28:36.503Z,27.31
2019-03-30T12:29:36.518Z,27.13
2019-03-30T12:30:36.486Z,27.84
2019-03-30T12:31:36.489Z,28.44
2019-03-30T12:32:36.460Z,28.93
2019-03-30T12:33:36.454Z,28.56
2019-03-30T12:34:36.447Z,27.19
2019-03-30T12:35:36.454Z,26.85
2019-03-30T12:36:36.420Z,27.12
2019-03-30T12:37:36.426Z,27.78
2019-03-30T12:38:36.398Z,28.21
2019-03-30T12:39:36.394Z,28.19
2019-03-30T12:40:36.407Z,28.25
2019-03-30T12:41:36.394Z,27.29
2019-03-30T12:42:36.434Z,27.27
2019-03-30T12:43:39.043Z,27.92
2019-03-30T12:44:36.338Z,27.39
2019-03-30T12:45:36.333Z,27.44
2019-03-30T12:46:36.339Z,27.40
2019-03-30T12:47:36.342Z,27.39
2019-03-30T12:48:36.303Z,27.94
2019-03-30T12:49:36.296Z,28.77
2019-03-30T12:50:36.285Z,28.62
2019-03-30T12:51:36.296Z,28.27
2019-03-30T12:52:36.257Z,28.12
2019-03-30T12:53:49.136Z,28.03
2019-03-30T12:54:37.254Z,27.54
2019-03-30T12:55:48.663Z,27.49
2019-03-30T12:56:38.393Z,28.44
2019-03-30T12:57:36.205Z,29.16
2019-03-30T12:58:36.198Z,30.15
2019-03-30T12:59:36.186Z,31.01
2019-03-30T13:00:36.175Z,30.97
2019-03-30T13:01:36.189Z,30.29
2019-03-30T13:02:36.151Z,30.17
2019-03-30T13:03:36.146Z,30.45
2019-03-30T13:04:36.137Z,29.06
2019-03-30T13:05:36.129Z,27.72
2019-03-30T13:06:36.130Z,27.62
2019-03-30T13:07:36.112Z,27.77
2019-03-30T13:08:36.095Z,28.43
2019-03-30T13:09:36.087Z,28.49